createdAt,value
2017-07-09T00:00:47.940Z,93.75
2017-07-09T00:01:47.936Z,93.67
2017-07-09T00:02:47.995Z,94.34
2017-07-09T00:03:47.930Z,94.12
2017-07-09T00:04:47.943Z,94.45
2017-07-09T00:05:47.848Z,94.31
2017-07-09T00:06:47.936Z,94.31
2017-07-09T00:07:47.853Z,95.07
2017-07-09T00:08:47.943Z,94.77
2017-07-09T00:09:47.861Z,95.01
2017-07-09T00:10:47.940Z,94.86
2017-07-09T00:11:47.937Z,95.28
2017-07-09T00:12:47.941Z,94.77
2017-07-09T00:13:47.947Z,94.31
2017-07-09T00:14:47.946Z,93.94
2017-07-09T00:15:47.865Z,94.42
2017-07-09T00:16:47.953Z,94.34
2017-07-09T00:17:47.909Z,95.18
2017-07-09T00:18:47.899Z,94.86
2017-07-09T00:19:47.865Z,95.39
2017-07-09T00:20:47.998Z,95.66
2017-07-09T00:21:47.941Z,95.10
2017-07-09T00:22:47.916Z,95.58
2017-07-09T00:23:47.923Z,95.42
2017-07-09T00:24:47.922Z,95.28
2017-07-09T00:25:47.924Z,95.31
2017-07-09T00:26:47.922Z,95.72
2017-07-09T00:27:47.926Z,95.34
2017-07-09T00:28:47.922Z,95.28
2017-07-09T00:29:47.925Z,95.31
2017-07-09T00:30:47.923Z,95.61
2017-07-09T00:31:47.893Z,95.64
2017-07-09T00:32:47.915Z,95.83
2017-07-09T00:33:47.864Z,95.85
2017-07-09T00:34:47.870Z,95.75
2017-07-09T00:35:47.963Z,95.50
2017-07-09T00:36:47.963Z,95.39
2017-07-09T00:37:47.967Z,95.56
2017-07-09T00:38:47.850Z,95.66
2017-07-09T00:39:47.906Z,95.75
2017-07-09T00:40:47.899Z,95.80
2017-07-09T00:41:47.870Z,95.96
2017-07-09T00:42:47.962Z,95.88
2017-07-09T00:43:47.970Z,95.85
2017-07-09T00:44:47.894Z,95.66
2017-07-09T00:45:47.949Z,95.91
2017-07-09T00:46:47.886Z,96.13
2017-07-09T00:47:47.880Z,96.07
2017-07-09T00:48:47.936Z,96.07
2017-07-09T00:49:47.972Z,96.15
2017-07-09T00:50:47.974Z,95.98
2017-07-09T00:51:47.954Z,96.31
2017-07-09T00:52:47.966Z,96.47
2017-07-09T00:53:47.937Z,96.53
2017-07-09T00:54:47.970Z,96.39
2017-07-09T00:55:47.891Z,96.31
2017-07-09T00:56:47.888Z,96.28
2017-07-09T00:57:47.924Z,95.91
2017-07-09T00:58:47.969Z,95.98
2017-07-09T00:59:47.979Z,95.66
2017-07-09T01:00:48.038Z,95.69
2017-07-09T01:01:47.955Z,95.58
2017-07-09T01:02:47.956Z,95.42
2017-07-09T01:03:47.955Z,95.20
2017-07-09T01:04:47.957Z,95.10
2017-07-09T01:05:47.957Z,95.20
2017-07-09T01:06:47.957Z,95.23
2017-07-09T01:07:47.973Z,95.28
2017-07-09T01:08:47.959Z,95.34
2017-07-09T01:09:47.957Z,95.61
2017-07-09T01:10:48.044Z,95.72
2017-07-09T01:11:47.982Z,95.75
2017-07-09T01:12:47.982Z,95.64
2017-07-09T01:13:47.913Z,95.47
2017-07-09T01:14:47.978Z,95.20
2017-07-09T01:15:47.978Z,94.93
2017-07-09T01:16:47.981Z,94.96
2017-07-09T01:17:47.990Z,94.93
2017-07-09T01:18:48.014Z,94.99
2017-07-09T01:19:47.989Z,94.99
2017-07-09T01:20:47.991Z,95.15
2017-07-09T01:21:47.952Z,93.64
2017-07-09T01:22:47.954Z,94.72
2017-07-09T01:23:47.956Z,94.15
2017-07-09T01:24:47.955Z,94.07
2017-07-09T01:25:47.957Z,94.02
2017-07-09T01:26:47.960Z,94.45
2017-07-09T01:27:47.956Z,94.77
2017-07-09T01:28:47.957Z,95.07
2017-07-09T01:29:47.958Z,95.61
2017-07-09T01:30:47.959Z,95.72
2017-07-09T01:31:47.924Z,95.58
2017-07-09T01:32:47.999Z,96.04
2017-07-09T01:33:47.903Z,96.13
2017-07-09T01:34:47.993Z,96.09
2017-07-09T01:35:48.000Z,96.58
2017-07-09T01:36:47.988Z,96.80
2017-07-09T01:37:47.910Z,96.20
2017-07-09T01:38:47.912Z,96.61
2017-07-09T01:39:47.998Z,96.53
2017-07-09T01:40:47.908Z,96.80
2017-07-09T01:41:48.011Z,97.23
2017-07-09T01:42:47.958Z,97.42
2017-07-09T01:43:47.999Z,97.91
2017-07-09T01:44:47.994Z,97.36
2017-07-09T01:45:47.997Z,97.91
2017-07-09T01:46:47.996Z,98.04
2017-07-09T01:47:48.011Z,98.45
2017-07-09T01:48:48.020Z,98.40
2017-07-09T01:49:47.932Z,98.72
2017-07-09T01:50:47.970Z,98.18
2017-07-09T01:51:47.999Z,98.15
2017-07-09T01:52:47.918Z,98.64
2017-07-09T01:53:48.001Z,98.83
2017-07-09T01:54:47.994Z,99.15
2017-07-09T01:55:47.920Z,99.43
2017-07-09T01:56:47.931Z,99.64
2017-07-09T01:57:48.020Z,99.99
2017-07-09T01:58:48.003Z,99.99
2017-07-09T01:59:47.972Z,99.99
2017-07-09T02:00:47.923Z,99.99
2017-07-09T02:01:48.006Z,99.99
2017-07-09T02:02:47.990Z,99.99
2017-07-09T02:03:48.006Z,99.99
2017-07-09T02:04:47.990Z,99.99
2017-07-09T02:05:47.991Z,99.99
2017-07-09T02:06:48.012Z,99.99
2017-07-09T02:07:47.998Z,99.99
2017-07-09T02:08:47.987Z,99.99
2017-07-09T02:09:47.994Z,99.99
2017-07-09T02:10:48.009Z,99.99
2017-07-09T02:11:47.997Z,99.99
2017-07-09T02:12:47.997Z,99.99
2017-07-09T02:13:47.998Z,99.99
2017-07-09T02:14:47.994Z,99.99
2017-07-09T02:15:47.976Z,99.99
2017-07-09T02:16:48.002Z,99.99
2017-07-09T02:17:48.003Z,99.99
2017-07-09T02:18:47.998Z,99.99
2017-07-09T02:19:48.001Z,99.99
2017-07-09T02:20:48.000Z,99.99
2017-07-09T02:21:48.015Z,99.99
2017-07-09T02:22:48.017Z,99.99
2017-07-09T02:23:47.936Z,99.99
2017-07-09T02:24:48.005Z,99.99
2017-07-09T02:25:48.010Z,99.99
2017-07-09T02:26:48.021Z,99.99
2017-07-09T02:27:48.025Z,99.99
2017-07-09T02:28:48.027Z,99.99
2017-07-09T02:29:48.011Z,99.99
2017-07-09T02:30:48.021Z,99.99
2017-07-09T02:31:47.939Z,99.99
2017-07-09T02:32:47.990Z,99.99
2017-07-09T02:33:48.026Z,99.99
2017-07-09T02:34:48.009Z,99.99
2017-07-09T02:35:47.959Z,99.99
2017-07-09T02:36:48.104Z,99.99
2017-07-09T02:37:48.027Z,99.99
2017-07-09T02:38:48.033Z,99.99
2017-07-09T02:39:48.023Z,99.99
2017-07-09T02:40:48.018Z,99.99
2017-07-09T02:41:48.039Z,99.99
2017-07-09T02:42:48.016Z,99.99
2017-07-09T02:43:47.932Z,99.99
2017-07-09T02:44:48.017Z,99.99
2017-07-09T02:45:48.013Z,99.99
2017-07-09T02:46:48.015Z,99.99
2017-07-09T02:47:48.016Z,99.99
2017-07-09T02:48:48.017Z,99.99
2017-07-09T02:49:48.020Z,99.99
2017-07-09T02:50:48.019Z,99.99
2017-07-09T02:51:48.042Z,99.99
2017-07-09T02:52:48.042Z,99.99
2017-07-09T02:53:48.036Z,99.99
2017-07-09T02:54:48.037Z,99.99
2017-07-09T02:55:48.025Z,99.99
2017-07-09T02:56:48.040Z,99.99
2017-07-09T02:57:48.001Z,99.99
2017-07-09T02:58:48.046Z,99.99
2017-07-09T02:59:48.013Z,99.99
2017-07-09T03:00:48.046Z,99.99
2017-07-09T03:01:48.006Z,99.99
2017-07-09T03:02:48.024Z,99.99
2017-07-09T03:03:47.926Z,99.99
2017-07-09T03:04:48.022Z,99.99
2017-07-09T03:05:47.945Z,99.99
2017-07-09T03:06:47.934Z,99.99
2017-07-09T03:07:48.037Z,99.99
2017-07-09T03:08:48.040Z,99.99
2017-07-09T03:09:47.989Z,99.99
2017-07-09T03:10:47.943Z,99.99
2017-07-09T03:11:47.980Z,99.99
2017-07-09T03:12:47.918Z,99.99
2017-07-09T03:13:47.989Z,99.99
2017-07-09T03:14:47.919Z,99.99
2017-07-09T03:15:47.991Z,99.99
2017-07-09T03:16:47.991Z,99.99
2017-07-09T03:17:47.942Z,99.99
2017-07-09T03:18:47.949Z,99.99
2017-07-09T03:19:48.055Z,99.99
2017-07-09T03:20:47.991Z,99.99
2017-07-09T03:21:48.000Z,99.99
2017-07-09T03:22:47.966Z,99.99
2017-07-09T03:23:47.986Z,99.99
2017-07-09T03:24:48.065Z,99.99
2017-07-09T03:25:48.073Z,99.99
2017-07-09T03:26:48.071Z,99.99
2017-07-09T03:27:48.062Z,99.99
2017-07-09T03:28:48.058Z,99.99
2017-07-09T03:29:47.977Z,99.99
2017-07-09T03:30:48.026Z,99.99
2017-07-09T03:31:48.056Z,99.99
2017-07-09T03:32:48.052Z,99.99
2017-07-09T03:33:48.066Z,99.99
2017-07-09T03:34:47.972Z,99.99
2017-07-09T03:35:48.057Z,99.99
2017-07-09T03:36:47.966Z,99.99
2017-07-09T03:37:48.047Z,99.99
2017-07-09T03:38:48.054Z,99.99
2017-07-09T03:39:48.055Z,99.99
2017-07-09T03:40:48.060Z,99.99
2017-07-09T03:41:47.962Z,99.99
2017-07-09T03:42:48.036Z,99.99
2017-07-09T03:43:48.037Z,99.99
2017-07-09T03:44:48.036Z,99.99
2017-07-09T03:45:48.035Z,99.99
2017-07-09T03:46:48.040Z,99.99
2017-07-09T03:47:48.039Z,99.99
2017-07-09T03:48:48.039Z,99.99
2017-07-09T03:49:48.041Z,99.99
2017-07-09T03:50:48.040Z,99.99
2017-07-09T03:51:48.042Z,99.99
2017-07-09T03:52:48.068Z,99.99
2017-07-09T03:53:47.991Z,99.99
2017-07-09T03:54:48.066Z,99.99
2017-07-09T03:55:48.059Z,99.99
2017-07-09T03:56:48.081Z,99.99
2017-07-09T03:57:48.067Z,99.99
2017-07-09T03:58:48.079Z,99.99
2017-07-09T03:59:48.076Z,99.99
2017-07-09T04:00:48.061Z,99.99
2017-07-09T04:01:48.081Z,99.99
2017-07-09T04:02:48.033Z,99.99
2017-07-09T04:03:48.084Z,99.99
2017-07-09T04:04:48.085Z,99.99
2017-07-09T04:05:48.027Z,99.99
2017-07-09T04:06:48.017Z,99.99
2017-07-09T04:07:47.989Z,99.99
2017-07-09T04:08:48.026Z,99.99
2017-07-09T04:09:48.084Z,99.99
2017-07-09T04:10:47.985Z,99.99
2017-07-09T04:11:47.993Z,99.99
2017-07-09T04:12:48.067Z,99.99
2017-07-09T04:13:48.070Z,99.99
2017-07-09T04:14:48.064Z,99.99
2017-07-09T04:15:48.065Z,99.99
2017-07-09T04:16:48.079Z,99.99
2017-07-09T04:17:48.064Z,99.99
2017-07-09T04:18:48.067Z,99.99
2017-07-09T04:19:48.068Z,99.99
2017-07-09T04:20:48.065Z,99.99
2017-07-09T04:21:48.068Z,99.99
2017-07-09T04:22:48.088Z,99.99
2017-07-09T04:23:48.089Z,99.99
2017-07-09T04:24:48.071Z,99.99
2017-07-09T04:25:48.093Z,99.99
2017-07-09T04:26:48.004Z,99.99
2017-07-09T04:27:48.005Z,99.99
2017-07-09T04:28:48.005Z,99.99
2017-07-09T04:29:48.083Z,99.99
2017-07-09T04:30:48.085Z,99.99
2017-07-09T04:31:48.105Z,99.99
2017-07-09T04:32:48.061Z,99.99
2017-07-09T04:33:48.073Z,99.99
2017-07-09T04:34:48.089Z,99.99
2017-07-09T04:35:48.101Z,99.99
2017-07-09T04:36:48.110Z,99.99
2017-07-09T04:37:48.012Z,99.99
2017-07-09T04:38:48.098Z,99.94
2017-07-09T04:39:48.099Z,99.83
2017-07-09T04:40:48.014Z,99.62
2017-07-09T04:41:48.013Z,99.51
2017-07-09T04:42:48.083Z,99.43
2017-07-09T04:43:48.084Z,99.86
2017-07-09T04:44:48.081Z,99.07
2017-07-09T04:45:48.083Z,99.59
2017-07-09T04:46:48.086Z,99.81
2017-07-09T04:47:48.086Z,99.62
2017-07-09T04:48:48.144Z,99.62
2017-07-09T04:49:48.086Z,99.26
2017-07-09T04:50:48.087Z,99.59
2017-07-09T04:51:48.092Z,99.37
2017-07-09T04:52:48.018Z,99.13
2017-07-09T04:53:48.104Z,99.48
2017-07-09T04:54:48.116Z,99.23
2017-07-09T04:55:48.023Z,98.69
2017-07-09T04:56:48.101Z,98.69
2017-07-09T04:57:48.015Z,98.04
2017-07-09T04:58:48.104Z,97.42
2017-07-09T04:59:48.115Z,97.21
2017-07-09T05:00:48.071Z,97.88
2017-07-09T05:01:48.113Z,97.39
2017-07-09T05:02:48.077Z,96.45
2017-07-09T05:03:48.082Z,97.21
2017-07-09T05:04:48.081Z,96.72
2017-07-09T05:05:48.087Z,95.72
2017-07-09T05:06:48.082Z,95.47
2017-07-09T05:07:48.124Z,96.42
2017-07-09T05:08:48.080Z,96.26
2017-07-09T05:09:48.086Z,96.26
2017-07-09T05:10:48.083Z,94.96
2017-07-09T05:11:48.085Z,95.75
2017-07-09T05:12:48.089Z,95.72
2017-07-09T05:13:48.112Z,96.36
2017-07-09T05:14:48.031Z,96.04
2017-07-09T05:15:48.115Z,95.53
2017-07-09T05:16:48.035Z,96.23
2017-07-09T05:17:48.118Z,96.28
2017-07-09T05:18:48.132Z,95.23
2017-07-09T05:19:48.035Z,95.28
2017-07-09T05:20:48.030Z,94.77
2017-07-09T05:21:48.124Z,94.93
2017-07-09T05:22:48.133Z,95.28
2017-07-09T05:23:48.102Z,95.47
2017-07-09T05:24:48.103Z,94.64
2017-07-09T05:25:48.102Z,94.59
2017-07-09T05:26:48.108Z,94.40
2017-07-09T05:27:48.103Z,93.37
2017-07-09T05:28:48.110Z,92.86
2017-07-09T05:29:48.109Z,93.51
2017-07-09T05:30:48.111Z,92.05
2017-07-09T05:31:48.107Z,93.10
2017-07-09T05:32:48.107Z,92.51
2017-07-09T05:33:48.126Z,92.57
2017-07-09T05:34:48.128Z,92.24
2017-07-09T05:35:48.125Z,92.99
2017-07-09T05:36:48.124Z,92.76
2017-07-09T05:37:48.141Z,92.57
2017-07-09T05:38:48.054Z,91.95
2017-07-09T05:39:48.140Z,92.57
2017-07-09T05:40:48.138Z,92.16
2017-07-09T05:41:48.111Z,92.03
2017-07-09T05:42:48.129Z,92.22
2017-07-09T05:43:48.041Z,92.19
2017-07-09T05:44:48.049Z,92.51
2017-07-09T05:45:48.054Z,91.76
2017-07-09T05:46:48.050Z,91.63
2017-07-09T05:47:48.114Z,91.11
2017-07-09T05:48:48.113Z,91.68
2017-07-09T05:49:48.052Z,91.17
2017-07-09T05:50:48.056Z,91.20
2017-07-09T05:51:48.140Z,92.24
2017-07-09T05:52:48.138Z,92.05
2017-07-09T05:53:48.111Z,92.59
2017-07-09T05:54:48.027Z,93.16
2017-07-09T05:55:48.115Z,92.22
2017-07-09T05:56:48.110Z,92.22
2017-07-09T05:57:48.108Z,91.22
2017-07-09T05:58:48.112Z,91.97
2017-07-09T05:59:48.108Z,91.73
2017-07-09T06:00:48.111Z,91.07
2017-07-09T06:01:48.111Z,91.11
2017-07-09T06:02:48.208Z,90.15
2017-07-09T06:03:48.129Z,90.66
2017-07-09T06:04:48.128Z,91.03
2017-07-09T06:05:48.127Z,90.82
2017-07-09T06:06:48.122Z,91.09
2017-07-09T06:07:48.126Z,90.28
2017-07-09T06:08:48.126Z,90.02
2017-07-09T06:09:48.125Z,90.09
2017-07-09T06:10:48.128Z,90.13
2017-07-09T06:11:48.127Z,90.47
2017-07-09T06:12:48.127Z,90.18
2017-07-09T06:13:48.114Z,89.22
2017-07-09T06:14:48.124Z,87.69
2017-07-09T06:15:48.118Z,88.84
2017-07-09T06:16:48.115Z,88.71
2017-07-09T06:17:48.118Z,88.20
2017-07-09T06:18:48.119Z,87.00
2017-07-09T06:19:48.117Z,87.96
2017-07-09T06:20:48.120Z,89.97
2017-07-09T06:21:48.118Z,88.92
2017-07-09T06:22:48.124Z,85.46
2017-07-09T06:23:48.125Z,86.09
2017-07-09T06:24:48.123Z,85.05
2017-07-09T06:25:48.125Z,86.09
2017-07-09T06:26:48.123Z,86.46
2017-07-09T06:27:48.048Z,87.96
2017-07-09T06:28:48.128Z,86.97
2017-07-09T06:29:48.125Z,85.48
2017-07-09T06:30:48.125Z,84.23
2017-07-09T06:31:48.128Z,85.35
2017-07-09T06:32:48.129Z,86.17
2017-07-09T06:33:48.144Z,84.68
2017-07-09T06:34:48.141Z,85.72
2017-07-09T06:35:48.141Z,84.66
2017-07-09T06:36:48.146Z,84.89
2017-07-09T06:37:48.144Z,83.20
2017-07-09T06:38:48.144Z,84.63
2017-07-09T06:39:48.145Z,84.97
2017-07-09T06:40:48.143Z,83.25
2017-07-09T06:41:48.143Z,84.39
2017-07-09T06:42:48.143Z,84.97
2017-07-09T06:43:48.141Z,86.60
2017-07-09T06:44:48.163Z,85.88
2017-07-09T06:45:48.161Z,84.81
2017-07-09T06:46:48.175Z,84.55
2017-07-09T06:47:48.076Z,85.53
2017-07-09T06:48:48.085Z,84.97
2017-07-09T06:49:48.078Z,83.75
2017-07-09T06:50:48.168Z,85.11
2017-07-09T06:51:48.093Z,85.75
2017-07-09T06:52:48.168Z,85.56
2017-07-09T06:53:48.152Z,84.44
2017-07-09T06:54:48.153Z,83.04
2017-07-09T06:55:48.153Z,84.26
2017-07-09T06:56:48.150Z,83.70
2017-07-09T06:57:48.153Z,84.34
2017-07-09T06:58:48.155Z,85.30
2017-07-09T06:59:48.156Z,84.95
2017-07-09T07:00:48.074Z,84.50
2017-07-09T07:01:48.155Z,84.47
2017-07-09T07:02:48.159Z,84.17
2017-07-09T07:03:48.129Z,83.97
2017-07-09T07:04:48.077Z,82.82
2017-07-09T07:05:48.131Z,82.45
2017-07-09T07:06:48.070Z,81.95
2017-07-09T07:07:48.086Z,81.74
2017-07-09T07:08:48.085Z,82.40
2017-07-09T07:09:48.135Z,83.83
2017-07-09T07:10:48.122Z,82.69
2017-07-09T07:11:48.135Z,81.58
2017-07-09T07:12:48.137Z,82.53
2017-07-09T07:13:48.161Z,81.98
2017-07-09T07:14:48.164Z,83.14
2017-07-09T07:15:48.163Z,82.51
2017-07-09T07:16:48.160Z,82.67
2017-07-09T07:17:48.165Z,82.03
2017-07-09T07:18:48.167Z,81.05
2017-07-09T07:19:48.167Z,83.04
2017-07-09T07:20:48.164Z,82.43
2017-07-09T07:21:48.166Z,82.82
2017-07-09T07:22:48.165Z,84.68
2017-07-09T07:23:48.181Z,82.85
2017-07-09T07:24:48.187Z,84.26
2017-07-09T07:25:48.189Z,81.76
2017-07-09T07:26:48.109Z,81.58
2017-07-09T07:27:48.187Z,80.79
2017-07-09T07:28:48.108Z,81.42
2017-07-09T07:29:48.199Z,79.86
2017-07-09T07:30:48.155Z,79.60
2017-07-09T07:31:48.113Z,79.68
2017-07-09T07:32:48.185Z,80.76
2017-07-09T07:33:48.172Z,80.52
2017-07-09T07:34:48.177Z,82.64
2017-07-09T07:35:48.175Z,81.68
2017-07-09T07:36:48.173Z,80.60
2017-07-09T07:37:48.175Z,79.28
2017-07-09T07:38:48.177Z,82.24
2017-07-09T07:39:48.175Z,80.29
2017-07-09T07:40:48.174Z,78.81
2017-07-09T07:41:48.179Z,79.83
2017-07-09T07:42:48.178Z,79.17
2017-07-09T07:43:48.178Z,79.86
2017-07-09T07:44:48.181Z,78.59
2017-07-09T07:45:48.179Z,78.86
2017-07-09T07:46:48.180Z,78.59
2017-07-09T07:47:48.181Z,78.01
2017-07-09T07:48:48.181Z,77.97
2017-07-09T07:49:48.185Z,78.23
2017-07-09T07:50:48.179Z,78.47
2017-07-09T07:51:48.187Z,78.31
2017-07-09T07:52:48.181Z,77.67
2017-07-09T07:53:48.185Z,77.97
2017-07-09T07:54:48.213Z,77.44
2017-07-09T07:55:48.199Z,77.75
2017-07-09T07:56:48.120Z,77.51
2017-07-09T07:57:48.206Z,78.65
2017-07-09T07:58:48.212Z,78.20
2017-07-09T07:59:48.200Z,78.09
2017-07-09T08:00:48.203Z,78.52
2017-07-09T08:01:48.281Z,77.54
2017-07-09T08:02:48.122Z,78.52
2017-07-09T08:03:48.132Z,77.81
2017-07-09T08:04:48.209Z,78.54
2017-07-09T08:05:48.193Z,78.99
2017-07-09T08:06:48.210Z,77.78
2017-07-09T08:07:48.206Z,77.78
2017-07-09T08:08:48.210Z,77.86
2017-07-09T08:09:48.130Z,78.62
2017-07-09T08:10:48.196Z,79.25
2017-07-09T08:11:48.186Z,78.52
2017-07-09T08:12:48.214Z,79.75
2017-07-09T08:13:48.131Z,78.36
2017-07-09T08:14:48.198Z,78.59
2017-07-09T08:15:48.199Z,76.67
2017-07-09T08:16:48.299Z,78.12
2017-07-09T08:17:48.196Z,76.60
2017-07-09T08:18:48.202Z,76.20
2017-07-09T08:19:48.197Z,74.79
2017-07-09T08:20:48.198Z,75.65
2017-07-09T08:21:48.121Z,74.71
2017-07-09T08:22:48.203Z,73.58
2017-07-09T08:23:48.202Z,70.84
2017-07-09T08:24:48.223Z,74.29
2017-07-09T08:25:48.213Z,73.06
2017-07-09T08:26:48.228Z,73.55
2017-07-09T08:27:48.196Z,74.58
2017-07-09T08:28:48.203Z,73.30
2017-07-09T08:29:48.223Z,74.29
2017-07-09T08:30:48.185Z,70.27
2017-07-09T08:31:48.184Z,72.22
2017-07-09T08:32:48.225Z,71.70
2017-07-09T08:33:48.276Z,70.64
2017-07-09T08:34:48.114Z,71.03
2017-07-09T08:35:48.119Z,70.21
2017-07-09T08:36:48.223Z,71.31
2017-07-09T08:37:48.097Z,70.29
2017-07-09T08:38:48.223Z,72.38
2017-07-09T08:39:48.118Z,72.09
2017-07-09T08:40:48.131Z,72.51
2017-07-09T08:41:48.114Z,71.26
2017-07-09T08:42:48.122Z,74.58
2017-07-09T08:43:48.230Z,69.98
2017-07-09T08:44:48.145Z,70.09
2017-07-09T08:45:48.210Z,68.84
2017-07-09T08:46:48.230Z,68.53
2017-07-09T08:47:48.231Z,68.16
2017-07-09T08:48:48.238Z,69.67
2017-07-09T08:49:48.238Z,68.58
2017-07-09T08:50:48.238Z,67.67
2017-07-09T08:51:48.231Z,68.66
2017-07-09T08:52:48.236Z,70.24
2017-07-09T08:53:48.238Z,70.14
2017-07-09T08:54:48.158Z,69.28
2017-07-09T08:55:48.241Z,70.68
2017-07-09T08:56:48.232Z,70.87
2017-07-09T08:57:48.154Z,69.85
2017-07-09T08:58:48.243Z,70.89
2017-07-09T08:59:48.149Z,69.75
2017-07-09T09:00:48.244Z,71.03
2017-07-09T09:01:48.219Z,71.34
2017-07-09T09:02:48.237Z,70.43
2017-07-09T09:03:48.164Z,71.13
2017-07-09T09:04:48.245Z,70.27
2017-07-09T09:05:48.356Z,69.93
2017-07-09T09:06:48.248Z,72.14
2017-07-09T09:07:48.222Z,72.30
2017-07-09T09:08:48.232Z,70.27
2017-07-09T09:09:48.272Z,70.45
2017-07-09T09:10:48.250Z,70.24
2017-07-09T09:11:48.171Z,69.05
2017-07-09T09:12:48.171Z,69.46
2017-07-09T09:13:48.172Z,69.46
2017-07-09T09:14:48.220Z,69.18
2017-07-09T09:15:48.223Z,68.84
2017-07-09T09:16:48.226Z,67.93
2017-07-09T09:17:48.225Z,70.01
2017-07-09T09:18:48.225Z,70.32
2017-07-09T09:19:48.222Z,69.18
2017-07-09T09:20:48.223Z,71.62
2017-07-09T09:21:48.223Z,67.57
2017-07-09T09:22:48.223Z,67.64
2017-07-09T09:23:48.223Z,68.89
2017-07-09T09:24:48.222Z,68.97
2017-07-09T09:25:48.229Z,71.03
2017-07-09T09:26:48.223Z,70.06
2017-07-09T09:27:48.225Z,71.75
2017-07-09T09:28:48.228Z,72.41
2017-07-09T09:29:48.231Z,71.99
2017-07-09T09:30:48.227Z,72.14
2017-07-09T09:31:48.228Z,73.24
2017-07-09T09:32:48.226Z,72.67
2017-07-09T09:33:48.232Z,74.16
2017-07-09T09:34:48.180Z,73.87
2017-07-09T09:35:48.255Z,73.93
2017-07-09T09:36:48.241Z,73.11
2017-07-09T09:37:48.239Z,75.02
2017-07-09T09:38:48.266Z,73.32
2017-07-09T09:39:48.252Z,73.87
2017-07-09T09:40:48.181Z,73.61
2017-07-09T09:41:48.270Z,74.40
2017-07-09T09:42:48.244Z,75.37
2017-07-09T09:43:48.184Z,75.52
2017-07-09T09:44:48.248Z,74.84
2017-07-09T09:45:48.253Z,74.81
2017-07-09T09:46:48.251Z,75.23
2017-07-09T09:47:48.246Z,73.71
2017-07-09T09:48:48.252Z,73.95
2017-07-09T09:49:48.252Z,74.42
2017-07-09T09:50:48.253Z,74.68
2017-07-09T09:51:48.252Z,73.48
2017-07-09T09:52:48.235Z,73.58
2017-07-09T09:53:48.254Z,74.34
2017-07-09T09:54:48.256Z,74.26
2017-07-09T09:55:48.253Z,72.51
2017-07-09T09:56:48.252Z,71.83
2017-07-09T09:57:48.261Z,72.77
2017-07-09T09:58:48.259Z,73.32
2017-07-09T09:59:48.273Z,74.34
2017-07-09T10:00:48.256Z,73.48
2017-07-09T10:01:48.257Z,73.74
2017-07-09T10:02:48.175Z,73.97
2017-07-09T10:03:48.262Z,73.63
2017-07-09T10:04:48.196Z,73.06
2017-07-09T10:05:48.282Z,73.30
2017-07-09T10:06:48.282Z,71.83
2017-07-09T10:07:48.203Z,72.80
2017-07-09T10:08:48.280Z,72.51
2017-07-09T10:09:48.192Z,72.51
2017-07-09T10:10:48.201Z,72.93
2017-07-09T10:11:48.284Z,73.93
2017-07-09T10:12:48.205Z,72.67
2017-07-09T10:13:48.284Z,72.43
2017-07-09T10:14:48.281Z,74.42
2017-07-09T10:15:48.197Z,71.10
2017-07-09T10:16:48.286Z,70.40
2017-07-09T10:17:48.282Z,71.60
2017-07-09T10:18:48.277Z,71.65
2017-07-09T10:19:48.285Z,70.45
2017-07-09T10:20:48.291Z,70.68
2017-07-09T10:21:48.263Z,71.65
2017-07-09T10:22:48.199Z,71.15
2017-07-09T10:23:48.190Z,71.28
2017-07-09T10:24:48.187Z,71.23
2017-07-09T10:25:48.231Z,72.25
2017-07-09T10:26:48.237Z,72.38
2017-07-09T10:27:48.232Z,70.56
2017-07-09T10:28:48.147Z,69.75
2017-07-09T10:29:48.216Z,69.75
2017-07-09T10:30:48.176Z,70.64
2017-07-09T10:31:48.234Z,70.24
2017-07-09T10:32:48.235Z,71.73
2017-07-09T10:33:48.240Z,72.20
2017-07-09T10:34:48.263Z,69.85
2017-07-09T10:35:48.271Z,68.45
2017-07-09T10:36:48.265Z,69.20
2017-07-09T10:37:48.266Z,69.72
2017-07-09T10:38:48.268Z,70.14
2017-07-09T10:39:48.272Z,68.99
2017-07-09T10:40:48.275Z,69.38
2017-07-09T10:41:48.274Z,70.11
2017-07-09T10:42:48.270Z,70.89
2017-07-09T10:43:48.270Z,70.40
2017-07-09T10:44:48.313Z,70.74
2017-07-09T10:45:48.215Z,71.70
2017-07-09T10:46:48.303Z,72.30
2017-07-09T10:47:48.259Z,71.13
2017-07-09T10:48:48.303Z,72.22
2017-07-09T10:49:48.223Z,72.69
2017-07-09T10:50:48.304Z,72.93
2017-07-09T10:51:48.335Z,70.82
2017-07-09T10:52:48.304Z,71.52
2017-07-09T10:53:48.213Z,68.71
2017-07-09T10:54:48.307Z,73.95
2017-07-09T10:55:48.308Z,70.48
2017-07-09T10:56:48.310Z,70.14
2017-07-09T10:57:48.221Z,70.53
2017-07-09T10:58:48.316Z,70.27
2017-07-09T10:59:48.312Z,71.60
2017-07-09T11:00:48.310Z,71.18
2017-07-09T11:01:48.236Z,71.23
2017-07-09T11:02:48.236Z,69.20
2017-07-09T11:03:48.309Z,71.47
2017-07-09T11:04:48.297Z,68.74
2017-07-09T11:05:48.296Z,68.91
2017-07-09T11:06:48.300Z,69.15
2017-07-09T11:07:48.297Z,71.15
2017-07-09T11:08:48.297Z,68.50
2017-07-09T11:09:48.301Z,67.80
2017-07-09T11:10:48.301Z,65.89
2017-07-09T11:11:48.305Z,64.42
2017-07-09T11:12:48.303Z,66.43
2017-07-09T11:13:48.302Z,65.53
2017-07-09T11:14:48.326Z,67.18
2017-07-09T11:15:48.320Z,64.13
2017-07-09T11:16:48.327Z,64.85
2017-07-09T11:17:48.319Z,65.73
2017-07-09T11:18:48.281Z,65.70
2017-07-09T11:19:48.318Z,64.15
2017-07-09T11:20:48.323Z,65.58
2017-07-09T11:21:48.233Z,65.37
2017-07-09T11:22:48.248Z,68.50
2017-07-09T11:23:48.241Z,68.47
2017-07-09T11:24:48.306Z,68.99
2017-07-09T11:25:48.305Z,67.75
2017-07-09T11:26:48.308Z,68.76
2017-07-09T11:27:48.309Z,71.03
2017-07-09T11:28:48.232Z,69.30
2017-07-09T11:29:48.317Z,70.35
2017-07-09T11:30:48.307Z,70.35
2017-07-09T11:31:48.309Z,72.77
2017-07-09T11:32:48.310Z,67.31
2017-07-09T11:33:48.318Z,65.60
2017-07-09T11:34:48.351Z,65.14
2017-07-09T11:35:48.311Z,66.01
2017-07-09T11:36:48.240Z,66.56
2017-07-09T11:37:48.330Z,68.19
2017-07-09T11:38:48.330Z,65.83
2017-07-09T11:39:48.246Z,66.35
2017-07-09T11:40:48.329Z,66.25
2017-07-09T11:41:48.263Z,66.06
2017-07-09T11:42:48.330Z,68.06
2017-07-09T11:43:48.296Z,66.43
2017-07-09T11:44:48.292Z,67.25
2017-07-09T11:45:48.216Z,65.53
2017-07-09T11:46:48.222Z,63.26
2017-07-09T11:47:48.335Z,64.95
2017-07-09T11:48:48.312Z,65.94
2017-07-09T11:49:48.231Z,65.60
2017-07-09T11:50:48.202Z,64.46
2017-07-09T11:51:48.243Z,66.25
2017-07-09T11:52:48.319Z,66.40
2017-07-09T11:53:48.226Z,65.70
2017-07-09T11:54:48.315Z,65.18
2017-07-09T11:55:48.314Z,67.28
2017-07-09T11:56:48.314Z,62.66
2017-07-09T11:57:48.315Z,59.86
2017-07-09T11:58:48.313Z,61.38
2017-07-09T11:59:48.316Z,62.43
2017-07-09T12:00:48.315Z,63.13
2017-07-09T12:01:48.320Z,60.01
2017-07-09T12:02:48.315Z,61.61
2017-07-09T12:03:48.320Z,59.02
2017-07-09T12:04:48.316Z,60.78
2017-07-09T12:05:48.320Z,60.61
2017-07-09T12:06:48.321Z,58.92
2017-07-09T12:07:48.321Z,60.33
2017-07-09T12:08:48.318Z,62.38
2017-07-09T12:09:48.321Z,63.41
2017-07-09T12:10:48.323Z,60.12
2017-07-09T12:11:48.327Z,64.08
2017-07-09T12:12:48.324Z,58.53
2017-07-09T12:13:48.323Z,58.81
2017-07-09T12:14:48.361Z,58.96
2017-07-09T12:15:48.276Z,60.12
2017-07-09T12:16:48.357Z,61.02
2017-07-09T12:17:48.355Z,61.25
2017-07-09T12:18:48.349Z,61.89
2017-07-09T12:19:48.370Z,59.53
2017-07-09T12:20:48.360Z,59.43
2017-07-09T12:21:48.367Z,60.09
2017-07-09T12:22:48.343Z,60.05
2017-07-09T12:23:48.338Z,60.48
2017-07-09T12:24:48.367Z,60.33
2017-07-09T12:25:48.368Z,61.02
2017-07-09T12:26:48.365Z,63.77
2017-07-09T12:27:48.366Z,60.48
2017-07-09T12:28:48.361Z,60.97
2017-07-09T12:29:48.366Z,61.99
2017-07-09T12:30:48.273Z,62.18
2017-07-09T12:31:48.277Z,62.92
2017-07-09T12:32:48.374Z,60.53
2017-07-09T12:33:48.280Z,59.09
2017-07-09T12:34:48.240Z,59.20
2017-07-09T12:35:48.240Z,61.02
2017-07-09T12:36:48.244Z,58.23
2017-07-09T12:37:48.255Z,61.43
2017-07-09T12:38:48.339Z,59.22
2017-07-09T12:39:48.211Z,55.30
2017-07-09T12:40:48.242Z,55.63
2017-07-09T12:41:48.212Z,56.46
2017-07-09T12:42:48.249Z,56.74
2017-07-09T12:43:48.243Z,56.21
2017-07-09T12:44:48.355Z,56.80
2017-07-09T12:45:48.353Z,57.79
2017-07-09T12:46:48.354Z,55.45
2017-07-09T12:47:48.354Z,55.50
2017-07-09T12:48:48.364Z,58.92
2017-07-09T12:49:48.354Z,55.47
2017-07-09T12:50:48.357Z,53.51
2017-07-09T12:51:48.355Z,54.45
2017-07-09T12:52:48.359Z,56.95